Decoded Metar for KNEW (NEW ORLEANS/LAKE in LA, USA) (IATA:NEW) | Meteo·Mobile Aviation Weather
aviador You're here:

KNEW Decoded Metar

NEW ORLEANS/LAKE in LA, USA
Report Time2019-06-27 08:53:00
UTC Time2019-06-27 09:20:46
Flight Rules vfr VFR
Wind090° at 06 kt
W.Decomp.*RWY 09: 6.0 kt HW 0.2 kt LCW
RWY 36: 0.2 kt HW 6.0 kt RCW
Visibility9999 m
Phenomena:N/A
Clouds:N/A
Expected CloudBase > 2,000 ft AGL from Temp-Dew spread
CeilingNone
Temp28°C (ISA +13)
Dew Point23°C (74% RH)
Heat Index31.2°C
QNH1021 hPa
Density Alt1,608 ft
Elevation10 ft
Report Wrong Elevation
Raw Report
KNEW 270853Z AUTO 09006KT 10SM CLR 28/23 A3014 RMK AO2 SLP201
T02780233 55007=

Extra information for KNEW:More info

Metar Taf Metar & Taf Last 4 Metars F.Rules Stats Wind Profile Meteogram Temp Stats Airport Information Weather charts Add Link Nearby VenuesMetar ALERT Operation Metar Decoded Social comments

AIRNAV info for KNEW